sensor_id;sensor_type;location;lat;lon;timestamp;temperature;humidity
59923;DHT22;45778;51.142;3.732;2023-08-01T00:02:19;15.70;99.90
59923;DHT22;45778;51.142;3.732;2023-08-01T00:04:45;15.80;99.90
59923;DHT22;45778;51.142;3.732;2023-08-01T00:07:11;15.80;99.90
59923;DHT22;45778;51.142;3.732;2023-08-01T00:09:36;15.80;99.90
59923;DHT22;45778;51.142;3.732;2023-08-01T00:12:02;15.80;99.90
59923;DHT22;45778;51.142;3.732;2023-08-01T00:14:28;15.70;99.90
59923;DHT22;45778;51.142;3.732;2023-08-01T00:16:54;15.80;99.90
59923;DHT22;45778;51.142;3.732;2023-08-01T00:19:19;15.80;99.90
59923;DHT22;45778;51.142;3.732;2023-08-01T00:21:45;15.70;99.90
59923;DHT22;45778;51.142;3.732;2023-08-01T00:24:11;15.70;99.90
59923;DHT22;45778;51.142;3.732;2023-08-01T00:26:36;15.70;99.90
59923;DHT22;45778;51.142;3.732;2023-08-01T00:29:02;15.60;99.90
59923;DHT22;45778;51.142;3.732;2023-08-01T00:31:28;15.60;99.90
59923;DHT22;45778;51.142;3.732;2023-08-01T00:33:53;15.70;99.90
59923;DHT22;45778;51.142;3.732;2023-08-01T00:36:19;15.60;99.90
59923;DHT22;45778;51.142;3.732;2023-08-01T00:38:44;15.60;99.90
59923;DHT22;45778;51.142;3.732;2023-08-01T00:41:10;15.60;99.90
59923;DHT22;45778;51.142;3.732;2023-08-01T00:43:36;15.60;99.90
59923;DHT22;45778;51.142;3.732;2023-08-01T00:46:05;15.60;99.90
59923;DHT22;45778;51.142;3.732;2023-08-01T00:48:31;15.60;99.90
59923;DHT22;45778;51.142;3.732;2023-08-01T00:51:03;15.60;99.90
59923;DHT22;45778;51.142;3.732;2023-08-01T00:53:30;15.70;99.90
59923;DHT22;45778;51.142;3.732;2023-08-01T00:55:56;15.70;99.90
59923;DHT22;45778;51.142;3.732;2023-08-01T00:58:22;15.70;99.90
59923;DHT22;45778;51.142;3.732;2023-08-01T01:00:48;15.70;99.90
59923;DHT22;45778;51.142;3.732;2023-08-01T01:03:14;15.70;99.90
59923;DHT22;45778;51.142;3.732;2023-08-01T01:05:47;15.70;99.90
59923;DHT22;45778;51.142;3.732;2023-08-01T01:08:14;15.70;99.90
59923;DHT22;45778;51.142;3.732;2023-08-01T01:10:40;15.70;99.90
59923;DHT22;45778;51.142;3.732;2023-08-01T01:13:06;15.70;99.90
59923;DHT22;45778;51.142;3.732;2023-08-01T01:15:32;15.70;99.90
59923;DHT22;45778;51.142;3.732;2023-08-01T01:17:58;15.70;99.90
59923;DHT22;45778;51.142;3.732;2023-08-01T01:20:24;15.70;99.90
59923;DHT22;45778;51.142;3.732;2023-08-01T01:22:52;15.70;99.90
59923;DHT22;45778;51.142;3.732;2023-08-01T01:25:19;15.70;99.90
59923;DHT22;45778;51.142;3.732;2023-08-01T01:27:46;15.70;99.90
59923;DHT22;45778;51.142;3.732;2023-08-01T01:30:12;15.60;99.90
59923;DHT22;45778;51.142;3.732;2023-08-01T01:32:39;15.60;99.90
59923;DHT22;45778;51.142;3.732;2023-08-01T01:35:05;15.60;99.90
59923;DHT22;45778;51.142;3.732;2023-08-01T01:37:30;15.60;99.90
59923;DHT22;45778;51.142;3.732;2023-08-01T01:39:56;15.60;99.90
59923;DHT22;45778;51.142;3.732;2023-08-01T01:42:22;15.60;99.90
59923;DHT22;45778;51.142;3.732;2023-08-01T01:44:48;15.60;99.90
59923;DHT22;45778;51.142;3.732;2023-08-01T01:47:13;15.60;99.90
59923;DHT22;45778;51.142;3.732;2023-08-01T01:49:39;15.60;99.90
59923;DHT22;45778;51.142;3.732;2023-08-01T01:52:05;15.60;99.90
59923;DHT22;45778;51.142;3.732;2023-08-01T01:54:30;15.50;99.90
59923;DHT22;45778;51.142;3.732;2023-08-01T01:56:56;15.50;99.90
59923;DHT22;45778;51.142;3.732;2023-08-01T01:59:22;15.50;99.90
59923;DHT22;45778;51.142;3.732;2023-08-01T02:01:47;15.40;99.90
59923;DHT22;45778;51.142;3.732;2023-08-01T02:04:13;15.40;99.90
59923;DHT22;45778;51.142;3.732;2023-08-01T02:06:38;15.40;99.90
59923;DHT22;45778;51.142;3.732;2023-08-01T02:09:04;15.40;99.90
59923;DHT22;45778;51.142;3.732;2023-08-01T02:11:30;15.40;99.90
59923;DHT22;45778;51.142;3.732;2023-08-01T02:13:56;15.40;99.90
59923;DHT22;45778;51.142;3.732;2023-08-01T02:16:21;15.40;99.90
59923;DHT22;45778;51.142;3.732;2023-08-01T02:18:47;15.40;99.90
59923;DHT22;45778;51.142;3.732;2023-08-01T02:21:13;15.50;99.90
59923;DHT22;45778;51.142;3.732;2023-08-01T02:23:38;15.50;99.90
59923;DHT22;45778;51.142;3.732;2023-08-01T02:26:04;15.50;99.90
59923;DHT22;45778;51.142;3.732;2023-08-01T02:28:30;15.50;99.90
59923;DHT22;45778;51.142;3.732;2023-08-01T02:30:55;15.50;99.90
59923;DHT22;45778;51.142;3.732;2023-08-01T02:33:21;15.50;99.90
59923;DHT22;45778;51.142;3.732;2023-08-01T02:35:47;15.60;99.90
59923;DHT22;45778;51.142;3.732;2023-08-01T02:38:13;15.60;99.90
59923;DHT22;45778;51.142;3.732;2023-08-01T02:40:38;15.60;99.90
59923;DHT22;45778;51.142;3.732;2023-08-01T02:43:04;15.60;99.90
59923;DHT22;45778;51.142;3.732;2023-08-01T02:45:30;15.60;99.90
59923;DHT22;45778;51.142;3.732;2023-08-01T02:47:55;15.60;99.90
59923;DHT22;45778;51.142;3.732;2023-08-01T02:50:21;15.60;99.90
59923;DHT22;45778;51.142;3.732;2023-08-01T02:52:46;15.60;99.90
59923;DHT22;45778;51.142;3.732;2023-08-01T02:55:12;15.60;99.90
59923;DHT22;45778;51.142;3.732;2023-08-01T02:57:38;15.60;99.90
59923;DHT22;45778;51.142;3.732;2023-08-01T03:00:04;15.70;99.90
59923;DHT22;45778;51.142;3.732;2023-08-01T03:02:31;15.70;99.90
59923;DHT22;45778;51.142;3.732;2023-08-01T03:04:57;15.70;99.90
59923;DHT22;45778;51.142;3.732;2023-08-01T03:07:23;15.60;99.90
59923;DHT22;45778;51.142;3.732;2023-08-01T03:09:48;15.60;99.90
59923;DHT22;45778;51.142;3.732;2023-08-01T03:12:14;15.50;99.90
59923;DHT22;45778;51.142;3.732;2023-08-01T03:14:40;15.60;99.90
59923;DHT22;45778;51.142;3.732;2023-08-01T03:17:08;15.60;99.90
59923;DHT22;45778;51.142;3.732;2023-08-01T03:19:34;15.60;99.90
59923;DHT22;45778;51.142;3.732;2023-08-01T03:22:00;15.70;99.90
59923;DHT22;45778;51.142;3.732;2023-08-01T03:24:26;15.60;99.90
59923;DHT22;45778;51.142;3.732;2023-08-01T03:26:52;15.60;99.90
59923;DHT22;45778;51.142;3.732;2023-08-01T03:29:17;15.70;99.90
59923;DHT22;45778;51.142;3.732;2023-08-01T03:31:43;15.70;99.90
59923;DHT22;45778;51.142;3.732;2023-08-01T03:34:09;15.80;99.90
59923;DHT22;45778;51.142;3.732;2023-08-01T03:36:35;15.70;99.90
59923;DHT22;45778;51.142;3.732;2023-08-01T03:39:01;15.70;99.90
59923;DHT22;45778;51.142;3.732;2023-08-01T03:41:27;15.60;99.90
59923;DHT22;45778;51.142;3.732;2023-08-01T03:43:52;15.60;99.90
59923;DHT22;45778;51.142;3.732;2023-08-01T03:46:18;15.50;99.90
59923;DHT22;45778;51.142;3.732;2023-08-01T03:48:43;15.50;99.90
59923;DHT22;45778;51.142;3.732;2023-08-01T03:51:09;15.50;99.90
59923;DHT22;45778;51.142;3.732;2023-08-01T03:53:35;15.50;99.90
59923;DHT22;45778;51.142;3.732;2023-08-01T03:56:01;15.40;99.90
59923;DHT22;45778;51.142;3.732;2023-08-01T03:58:27;15.40;99.90
59923;DHT22;45778;51.142;3.732;2023-08-01T04:00:53;15.40;99.90
59923;DHT22;45778;51.142;3.732;2023-08-01T04:03:19;15.40;99.90
59923;DHT22;45778;51.142;3.732;2023-08-01T04:05:44;15.40;99.90
59923;DHT22;45778;51.142;3.732;2023-08-01T04:08:10;15.40;99.90
59923;DHT22;45778;51.142;3.732;2023-08-01T04:10:35;15.40;99.90
59923;DHT22;45778;51.142;3.732;2023-08-01T04:13:01;15.30;99.90
59923;DHT22;45778;51.142;3.732;2023-08-01T04:15:27;15.40;99.90
59923;DHT22;45778;51.142;3.732;2023-08-01T04:17:52;15.30;99.90
59923;DHT22;45778;51.142;3.732;2023-08-01T04:20:18;15.30;99.90
59923;DHT22;45778;51.142;3.732;2023-08-01T04:22:44;15.40;99.90
59923;DHT22;45778;51.142;3.732;2023-08-01T04:25:09;15.40;99.90
59923;DHT22;45778;51.142;3.732;2023-08-01T04:27:35;15.40;99.90
59923;DHT22;45778;51.142;3.732;2023-08-01T04:30:01;15.40;99.90
59923;DHT22;45778;51.142;3.732;2023-08-01T04:32:26;15.40;99.90
59923;DHT22;45778;51.142;3.732;2023-08-01T04:34:52;15.50;99.90
59923;DHT22;45778;51.142;3.732;2023-08-01T04:37:18;15.50;99.90
59923;DHT22;45778;51.142;3.732;2023-08-01T04:39:46;15.50;99.90
59923;DHT22;45778;51.142;3.732;2023-08-01T04:42:11;15.60;99.90
59923;DHT22;45778;51.142;3.732;2023-08-01T04:44:37;15.50;99.90
59923;DHT22;45778;51.142;3.732;2023-08-01T04:47:03;15.60;99.90
59923;DHT22;45778;51.142;3.732;2023-08-01T04:49:28;15.60;99.90
59923;DHT22;45778;51.142;3.732;2023-08-01T04:51:55;15.60;99.90
59923;DHT22;45778;51.142;3.732;2023-08-01T04:54:21;15.60;99.90
59923;DHT22;45778;51.142;3.732;2023-08-01T04:56:47;15.70;99.90
59923;DHT22;45778;51.142;3.732;2023-08-01T04:59:12;15.70;99.90
59923;DHT22;45778;51.142;3.732;2023-08-01T05:01:38;15.70;99.90
59923;DHT22;45778;51.142;3.732;2023-08-01T05:04:04;15.80;99.90
59923;DHT22;45778;51.142;3.732;2023-08-01T05:06:29;15.80;99.90
59923;DHT22;45778;51.142;3.732;2023-08-01T05:08:55;15.80;99.90
59923;DHT22;45778;51.142;3.732;2023-08-01T05:11:20;15.80;99.90
59923;DHT22;45778;51.142;3.732;2023-08-01T05:13:46;15.80;99.90
59923;DHT22;45778;51.142;3.732;2023-08-01T05:16:12;15.80;99.90
59923;DHT22;45778;51.142;3.732;2023-08-01T05:18:38;15.80;99.90
59923;DHT22;45778;51.142;3.732;2023-08-01T05:21:03;15.80;99.90
59923;DHT22;45778;51.142;3.732;2023-08-01T05:23:29;15.80;99.90
59923;DHT22;45778;51.142;3.732;2023-08-01T05:25:55;15.80;99.90
59923;DHT22;45778;51.142;3.732;2023-08-01T05:28:20;15.70;99.90
59923;DHT22;45778;51.142;3.732;2023-08-01T05:30:47;15.70;99.90
59923;DHT22;45778;51.142;3.732;2023-08-01T05:33:12;15.80;99.90
59923;DHT22;45778;51.142;3.732;2023-08-01T05:35:38;15.80;99.90
59923;DHT22;45778;51.142;3.732;2023-08-01T05:38:04;15.80;99.90
59923;DHT22;45778;51.142;3.732;2023-08-01T05:40:29;15.90;99.90
59923;DHT22;45778;51.142;3.732;2023-08-01T05:42:55;16.00;99.90
59923;DHT22;45778;51.142;3.732;2023-08-01T05:45:21;16.10;99.90
59923;DHT22;45778;51.142;3.732;2023-08-01T05:47:46;16.20;99.90
59923;DHT22;45778;51.142;3.732;2023-08-01T05:50:12;16.20;99.90
59923;DHT22;45778;51.142;3.732;2023-08-01T05:52:38;16.30;99.90
59923;DHT22;45778;51.142;3.732;2023-08-01T05:55:04;16.30;99.90
59923;DHT22;45778;51.142;3.732;2023-08-01T05:57:29;16.40;99.90
59923;DHT22;45778;51.142;3.732;2023-08-01T05:59:55;16.40;99.90
59923;DHT22;45778;51.142;3.732;2023-08-01T06:02:21;16.40;99.90
59923;DHT22;45778;51.142;3.732;2023-08-01T06:04:47;16.30;99.90
59923;DHT22;45778;51.142;3.732;2023-08-01T06:07:12;16.30;99.90
59923;DHT22;45778;51.142;3.732;2023-08-01T06:09:38;16.10;99.90
59923;DHT22;45778;51.142;3.732;2023-08-01T06:12:04;16.10;99.90
59923;DHT22;45778;51.142;3.732;2023-08-01T06:14:30;16.20;99.90
59923;DHT22;45778;51.142;3.732;2023-08-01T06:16:55;16.30;99.90
59923;DHT22;45778;51.142;3.732;2023-08-01T06:19:21;16.30;99.90
59923;DHT22;45778;51.142;3.732;2023-08-01T06:21:47;16.30;99.90
59923;DHT22;45778;51.142;3.732;2023-08-01T06:24:13;16.20;99.90
59923;DHT22;45778;51.142;3.732;2023-08-01T06:26:38;16.30;99.90
59923;DHT22;45778;51.142;3.732;2023-08-01T06:29:04;16.30;99.90
59923;DHT22;45778;51.142;3.732;2023-08-01T06:31:30;16.40;99.90
59923;DHT22;45778;51.142;3.732;2023-08-01T06:33:56;16.50;99.90
59923;DHT22;45778;51.142;3.732;2023-08-01T06:36:21;16.50;99.90
59923;DHT22;45778;51.142;3.732;2023-08-01T06:38:47;16.70;99.90
59923;DHT22;45778;51.142;3.732;2023-08-01T06:41:13;16.80;99.90
59923;DHT22;45778;51.142;3.732;2023-08-01T06:43:38;16.90;99.90
59923;DHT22;45778;51.142;3.732;2023-08-01T06:46:04;17.00;99.90
59923;DHT22;45778;51.142;3.732;2023-08-01T06:48:31;17.10;99.90
59923;DHT22;45778;51.142;3.732;2023-08-01T06:51:00;17.00;99.90
59923;DHT22;45778;51.142;3.732;2023-08-01T06:53:26;16.80;99.90
59923;DHT22;45778;51.142;3.732;2023-08-01T06:55:52;16.90;99.90
59923;DHT22;45778;51.142;3.732;2023-08-01T06:58:18;16.90;99.90
59923;DHT22;45778;51.142;3.732;2023-08-01T07:00:44;16.90;99.90
59923;DHT22;45778;51.142;3.732;2023-08-01T07:03:09;17.10;99.90
59923;DHT22;45778;51.142;3.732;2023-08-01T07:05:35;17.20;99.90
59923;DHT22;45778;51.142;3.732;2023-08-01T07:08:01;17.20;99.90
59923;DHT22;45778;51.142;3.732;2023-08-01T07:10:26;17.20;99.90
59923;DHT22;45778;51.142;3.732;2023-08-01T07:12:52;17.40;99.90
59923;DHT22;45778;51.142;3.732;2023-08-01T07:15:18;17.40;99.90
59923;DHT22;45778;51.142;3.732;2023-08-01T07:17:43;17.40;99.90
59923;DHT22;45778;51.142;3.732;2023-08-01T07:20:09;17.30;99.90
59923;DHT22;45778;51.142;3.732;2023-08-01T07:22:35;17.50;99.90
59923;DHT22;45778;51.142;3.732;2023-08-01T07:25:01;17.50;99.90
59923;DHT22;45778;51.142;3.732;2023-08-01T07:27:27;17.70;99.90
59923;DHT22;45778;51.142;3.732;2023-08-01T07:29:52;17.80;99.90
59923;DHT22;45778;51.142;3.732;2023-08-01T07:32:18;17.80;99.90
59923;DHT22;45778;51.142;3.732;2023-08-01T07:34:44;17.70;99.90
59923;DHT22;45778;51.142;3.732;2023-08-01T07:37:09;18.00;99.90
59923;DHT22;45778;51.142;3.732;2023-08-01T07:39:35;18.30;99.90
59923;DHT22;45778;51.142;3.732;2023-08-01T07:42:01;18.10;99.90
59923;DHT22;45778;51.142;3.732;2023-08-01T07:44:27;17.90;99.90
59923;DHT22;45778;51.142;3.732;2023-08-01T07:46:52;18.00;99.90
59923;DHT22;45778;51.142;3.732;2023-08-01T07:49:18;18.10;99.90
59923;DHT22;45778;51.142;3.732;2023-08-01T07:51:44;18.20;99.90
59923;DHT22;45778;51.142;3.732;2023-08-01T07:54:10;18.20;99.90
59923;DHT22;45778;51.142;3.732;2023-08-01T07:56:36;18.30;99.90
59923;DHT22;45778;51.142;3.732;2023-08-01T07:59:01;18.30;99.90
59923;DHT22;45778;51.142;3.732;2023-08-01T08:01:27;18.30;99.90
59923;DHT22;45778;51.142;3.732;2023-08-01T08:03:53;18.10;99.90
59923;DHT22;45778;51.142;3.732;2023-08-01T08:06:18;18.20;99.90
59923;DHT22;45778;51.142;3.732;2023-08-01T08:08:47;18.30;99.90
59923;DHT22;45778;51.142;3.732;2023-08-01T08:11:12;18.50;99.90
59923;DHT22;45778;51.142;3.732;2023-08-01T08:13:38;18.60;99.90
59923;DHT22;45778;51.142;3.732;2023-08-01T08:16:05;18.70;99.90
59923;DHT22;45778;51.142;3.732;2023-08-01T08:18:31;19.00;99.90
59923;DHT22;45778;51.142;3.732;2023-08-01T08:20:56;19.00;99.90
59923;DHT22;45778;51.142;3.732;2023-08-01T08:23:22;18.90;99.90
59923;DHT22;45778;51.142;3.732;2023-08-01T08:25:48;18.90;99.90
59923;DHT22;45778;51.142;3.732;2023-08-01T08:28:16;19.00;99.90
59923;DHT22;45778;51.142;3.732;2023-08-01T08:30:42;19.10;99.90
59923;DHT22;45778;51.142;3.732;2023-08-01T08:33:08;18.80;99.90
59923;DHT22;45778;51.142;3.732;2023-08-01T08:35:35;18.10;99.90
59923;DHT22;45778;51.142;3.732;2023-08-01T08:38:03;17.40;99.90
59923;DHT22;45778;51.142;3.732;2023-08-01T08:40:35;16.80;99.90
59923;DHT22;45778;51.142;3.732;2023-08-01T08:43:05;16.60;99.90
59923;DHT22;45778;51.142;3.732;2023-08-01T08:45:35;16.80;99.90
59923;DHT22;45778;51.142;3.732;2023-08-01T08:48:02;17.00;99.90
59923;DHT22;45778;51.142;3.732;2023-08-01T08:50:30;17.20;99.90
59923;DHT22;45778;51.142;3.732;2023-08-01T08:52:57;17.40;99.90
59923;DHT22;45778;51.142;3.732;2023-08-01T08:55:23;17.70;99.90
59923;DHT22;45778;51.142;3.732;2023-08-01T08:57:51;17.90;99.90
59923;DHT22;45778;51.142;3.732;2023-08-01T09:00:18;18.00;99.90
59923;DHT22;45778;51.142;3.732;2023-08-01T09:02:45;18.20;99.90
59923;DHT22;45778;51.142;3.732;2023-08-01T09:05:11;18.20;99.90
59923;DHT22;45778;51.142;3.732;2023-08-01T09:07:42;17.90;99.90
59923;DHT22;45778;51.142;3.732;2023-08-01T09:10:08;17.50;99.90
59923;DHT22;45778;51.142;3.732;2023-08-01T09:12:34;17.20;99.90
59923;DHT22;45778;51.142;3.732;2023-08-01T09:15:00;17.00;99.90
59923;DHT22;45778;51.142;3.732;2023-08-01T09:17:26;17.20;99.90
59923;DHT22;45778;51.142;3.732;2023-08-01T09:20:05;17.50;99.90
59923;DHT22;45778;51.142;3.732;2023-08-01T09:22:43;17.90;99.90
59923;DHT22;45778;51.142;3.732;2023-08-01T09:25:10;18.20;99.90
59923;DHT22;45778;51.142;3.732;2023-08-01T09:27:36;18.50;99.90
59923;DHT22;45778;51.142;3.732;2023-08-01T09:30:10;18.80;99.90
59923;DHT22;45778;51.142;3.732;2023-08-01T09:32:39;18.80;99.90
59923;DHT22;45778;51.142;3.732;2023-08-01T09:35:05;19.00;99.90
59923;DHT22;45778;51.142;3.732;2023-08-01T09:37:41;19.40;99.90
59923;DHT22;45778;51.142;3.732;2023-08-01T09:40:08;19.30;99.90
59923;DHT22;45778;51.142;3.732;2023-08-01T09:42:43;19.30;99.90
59923;DHT22;45778;51.142;3.732;2023-08-01T09:45:16;19.30;99.90
59923;DHT22;45778;51.142;3.732;2023-08-01T09:47:43;19.50;99.90
59923;DHT22;45778;51.142;3.732;2023-08-01T09:50:10;19.50;99.90
59923;DHT22;45778;51.142;3.732;2023-08-01T09:52:40;19.40;99.90
59923;DHT22;45778;51.142;3.732;2023-08-01T09:55:06;19.50;99.90
59923;DHT22;45778;51.142;3.732;2023-08-01T09:57:34;19.40;99.90
59923;DHT22;45778;51.142;3.732;2023-08-01T10:00:01;19.40;99.90
59923;DHT22;45778;51.142;3.732;2023-08-01T10:02:30;19.20;99.90
59923;DHT22;45778;51.142;3.732;2023-08-01T10:05:00;19.50;99.90
59923;DHT22;45778;51.142;3.732;2023-08-01T10:07:29;19.90;99.90
59923;DHT22;45778;51.142;3.732;2023-08-01T10:09:58;20.40;99.90
59923;DHT22;45778;51.142;3.732;2023-08-01T10:12:26;20.40;99.90
59923;DHT22;45778;51.142;3.732;2023-08-01T10:14:53;20.40;99.90
59923;DHT22;45778;51.142;3.732;2023-08-01T10:17:19;20.50;99.90
59923;DHT22;45778;51.142;3.732;2023-08-01T10:19:46;20.40;99.90
59923;DHT22;45778;51.142;3.732;2023-08-01T10:22:14;20.30;99.90
59923;DHT22;45778;51.142;3.732;2023-08-01T10:24:40;20.00;99.90
59923;DHT22;45778;51.142;3.732;2023-08-01T10:27:19;19.80;99.90
59923;DHT22;45778;51.142;3.732;2023-08-01T10:29:59;20.00;99.90
59923;DHT22;45778;51.142;3.732;2023-08-01T10:32:36;20.40;99.90
59923;DHT22;45778;51.142;3.732;2023-08-01T10:35:01;20.70;99.90
59923;DHT22;45778;51.142;3.732;2023-08-01T10:37:39;20.80;99.90
59923;DHT22;45778;51.142;3.732;2023-08-01T10:40:06;20.90;99.90
59923;DHT22;45778;51.142;3.732;2023-08-01T10:42:42;21.10;99.90
59923;DHT22;45778;51.142;3.732;2023-08-01T10:45:20;21.30;99.90
59923;DHT22;45778;51.142;3.732;2023-08-01T10:47:47;21.10;99.90
59923;DHT22;45778;51.142;3.732;2023-08-01T10:50:14;21.10;99.90
59923;DHT22;45778;51.142;3.732;2023-08-01T10:52:41;20.80;99.90
59923;DHT22;45778;51.142;3.732;2023-08-01T10:55:07;20.80;99.90
59923;DHT22;45778;51.142;3.732;2023-08-01T10:57:36;20.70;99.90
59923;DHT22;45778;51.142;3.732;2023-08-01T11:00:03;20.80;99.90
59923;DHT22;45778;51.142;3.732;2023-08-01T11:02:35;21.10;99.90
59923;DHT22;45778;51.142;3.732;2023-08-01T11:05:06;21.00;99.90
59923;DHT22;45778;51.142;3.732;2023-08-01T11:07:33;20.90;99.90
59923;DHT22;45778;51.142;3.732;2023-08-01T11:10:13;20.70;99.90
59923;DHT22;45778;51.142;3.732;2023-08-01T11:12:43;20.30;99.90
59923;DHT22;45778;51.142;3.732;2023-08-01T11:15:11;20.40;99.90
59923;DHT22;45778;51.142;3.732;2023-08-01T11:17:42;20.50;99.90
59923;DHT22;45778;51.142;3.732;2023-08-01T11:20:09;20.50;99.90
59923;DHT22;45778;51.142;3.732;2023-08-01T11:22:37;20.50;99.90
59923;DHT22;45778;51.142;3.732;2023-08-01T11:25:03;20.80;99.90
59923;DHT22;45778;51.142;3.732;2023-08-01T11:27:29;20.90;99.90
59923;DHT22;45778;51.142;3.732;2023-08-01T11:29:55;20.90;99.90
59923;DHT22;45778;51.142;3.732;2023-08-01T11:32:21;21.10;99.90
59923;DHT22;45778;51.142;3.732;2023-08-01T11:34:48;21.30;99.90
59923;DHT22;45778;51.142;3.732;2023-08-01T11:37:17;21.30;99.90
59923;DHT22;45778;51.142;3.732;2023-08-01T11:39:44;20.80;99.90
59923;DHT22;45778;51.142;3.732;2023-08-01T11:42:15;20.40;99.90
59923;DHT22;45778;51.142;3.732;2023-08-01T11:44:42;20.40;99.90
59923;DHT22;45778;51.142;3.732;2023-08-01T11:47:12;20.70;99.90
59923;DHT22;45778;51.142;3.732;2023-08-01T11:49:38;20.90;99.90
59923;DHT22;45778;51.142;3.732;2023-08-01T11:52:05;20.90;99.90
59923;DHT22;45778;51.142;3.732;2023-08-01T11:54:30;20.80;99.90
59923;DHT22;45778;51.142;3.732;2023-08-01T11:57:02;21.10;99.90
59923;DHT22;45778;51.142;3.732;2023-08-01T11:59:28;21.10;99.90
59923;DHT22;45778;51.142;3.732;2023-08-01T12:01:57;20.80;99.90
59923;DHT22;45778;51.142;3.732;2023-08-01T12:04:27;20.50;99.90
59923;DHT22;45778;51.142;3.732;2023-08-01T12:06:53;20.70;99.90
59923;DHT22;45778;51.142;3.732;2023-08-01T12:09:19;21.00;99.90
59923;DHT22;45778;51.142;3.732;2023-08-01T12:11:46;21.00;99.90
59923;DHT22;45778;51.142;3.732;2023-08-01T12:14:15;21.10;99.90
59923;DHT22;45778;51.142;3.732;2023-08-01T12:16:42;21.10;99.90
59923;DHT22;45778;51.142;3.732;2023-08-01T12:19:17;21.60;99.90
59923;DHT22;45778;51.142;3.732;2023-08-01T12:21:44;22.40;99.90
59923;DHT22;45778;51.142;3.732;2023-08-01T12:24:10;22.40;99.90
59923;DHT22;45778;51.142;3.732;2023-08-01T12:26:36;22.40;99.90
59923;DHT22;45778;51.142;3.732;2023-08-01T12:29:01;22.30;99.90
59923;DHT22;45778;51.142;3.732;2023-08-01T12:31:28;21.90;99.90
59923;DHT22;45778;51.142;3.732;2023-08-01T12:33:54;22.30;99.90
59923;DHT22;45778;51.142;3.732;2023-08-01T12:36:20;22.70;99.90
59923;DHT22;45778;51.142;3.732;2023-08-01T12:38:45;22.70;99.90
59923;DHT22;45778;51.142;3.732;2023-08-01T12:41:11;22.10;99.90
59923;DHT22;45778;51.142;3.732;2023-08-01T12:43:37;22.00;99.90
59923;DHT22;45778;51.142;3.732;2023-08-01T12:46:03;21.70;99.90
59923;DHT22;45778;51.142;3.732;2023-08-01T12:48:29;21.10;99.90
59923;DHT22;45778;51.142;3.732;2023-08-01T12:50:55;20.90;99.90
59923;DHT22;45778;51.142;3.732;2023-08-01T12:53:22;20.70;99.90
59923;DHT22;45778;51.142;3.732;2023-08-01T12:55:51;20.60;99.90
59923;DHT22;45778;51.142;3.732;2023-08-01T12:58:17;20.60;99.90
59923;DHT22;45778;51.142;3.732;2023-08-01T13:00:44;20.60;99.90
59923;DHT22;45778;51.142;3.732;2023-08-01T13:03:10;20.80;99.90
59923;DHT22;45778;51.142;3.732;2023-08-01T13:05:40;21.60;99.90
59923;DHT22;45778;51.142;3.732;2023-08-01T13:08:06;22.00;99.90
59923;DHT22;45778;51.142;3.732;2023-08-01T13:10:33;21.80;99.90
59923;DHT22;45778;51.142;3.732;2023-08-01T13:13:00;21.60;99.90
59923;DHT22;45778;51.142;3.732;2023-08-01T13:15:26;21.30;99.90
59923;DHT22;45778;51.142;3.732;2023-08-01T13:17:52;20.90;99.90
59923;DHT22;45778;51.142;3.732;2023-08-01T13:20:18;20.60;99.90
59923;DHT22;45778;51.142;3.732;2023-08-01T13:22:46;20.40;99.90
59923;DHT22;45778;51.142;3.732;2023-08-01T13:25:13;20.30;99.90
59923;DHT22;45778;51.142;3.732;2023-08-01T13:27:39;20.30;99.90
59923;DHT22;45778;51.142;3.732;2023-08-01T13:30:05;20.20;99.90
59923;DHT22;45778;51.142;3.732;2023-08-01T13:32:31;20.30;99.90
59923;DHT22;45778;51.142;3.732;2023-08-01T13:34:57;20.30;99.90
59923;DHT22;45778;51.142;3.732;2023-08-01T13:37:22;20.20;99.90
59923;DHT22;45778;51.142;3.732;2023-08-01T13:39:48;19.80;99.90
59923;DHT22;45778;51.142;3.732;2023-08-01T13:42:15;19.60;99.90
59923;DHT22;45778;51.142;3.732;2023-08-01T13:44:41;19.30;99.90
59923;DHT22;45778;51.142;3.732;2023-08-01T13:47:07;19.10;99.90
59923;DHT22;45778;51.142;3.732;2023-08-01T13:49:33;18.90;99.90
59923;DHT22;45778;51.142;3.732;2023-08-01T13:51:59;18.80;99.90
59923;DHT22;45778;51.142;3.732;2023-08-01T13:54:26;18.60;99.90
59923;DHT22;45778;51.142;3.732;2023-08-01T13:56:51;18.40;99.90
59923;DHT22;45778;51.142;3.732;2023-08-01T13:59:19;18.30;99.90
59923;DHT22;45778;51.142;3.732;2023-08-01T14:01:45;18.20;99.90
59923;DHT22;45778;51.142;3.732;2023-08-01T14:04:11;18.10;99.90
59923;DHT22;45778;51.142;3.732;2023-08-01T14:06:40;18.20;99.90
59923;DHT22;45778;51.142;3.732;2023-08-01T14:09:07;18.40;99.90
59923;DHT22;45778;51.142;3.732;2023-08-01T14:11:34;18.70;99.90
59923;DHT22;45778;51.142;3.732;2023-08-01T14:14:00;18.90;99.90
59923;DHT22;45778;51.142;3.732;2023-08-01T14:16:25;19.10;99.90
59923;DHT22;45778;51.142;3.732;2023-08-01T14:18:51;19.20;99.90
59923;DHT22;45778;51.142;3.732;2023-08-01T14:21:16;19.20;99.90
59923;DHT22;45778;51.142;3.732;2023-08-01T14:23:42;19.40;99.90
59923;DHT22;45778;51.142;3.732;2023-08-01T14:26:08;19.20;99.90
59923;DHT22;45778;51.142;3.732;2023-08-01T14:28:34;19.30;99.90
59923;DHT22;45778;51.142;3.732;2023-08-01T14:31:03;19.20;99.90
59923;DHT22;45778;51.142;3.732;2023-08-01T14:33:30;19.40;99.90
59923;DHT22;45778;51.142;3.732;2023-08-01T14:35:56;19.70;99.90
59923;DHT22;45778;51.142;3.732;2023-08-01T14:38:22;19.90;99.90
59923;DHT22;45778;51.142;3.732;2023-08-01T14:40:48;20.00;99.90
59923;DHT22;45778;51.142;3.732;2023-08-01T14:43:14;20.20;99.90
59923;DHT22;45778;51.142;3.732;2023-08-01T14:45:41;20.60;99.90
59923;DHT22;45778;51.142;3.732;2023-08-01T14:48:07;20.70;99.90
59923;DHT22;45778;51.142;3.732;2023-08-01T14:50:33;20.60;99.90
59923;DHT22;45778;51.142;3.732;2023-08-01T14:52:59;20.50;99.90
59923;DHT22;45778;51.142;3.732;2023-08-01T14:55:25;20.10;99.90
59923;DHT22;45778;51.142;3.732;2023-08-01T14:57:51;19.90;99.90
59923;DHT22;45778;51.142;3.732;2023-08-01T15:00:16;19.90;99.90
59923;DHT22;45778;51.142;3.732;2023-08-01T15:02:42;19.70;99.90
59923;DHT22;45778;51.142;3.732;2023-08-01T15:05:08;19.50;99.90
59923;DHT22;45778;51.142;3.732;2023-08-01T15:07:34;19.30;99.90
59923;DHT22;45778;51.142;3.732;2023-08-01T15:09:59;19.20;99.90
59923;DHT22;45778;51.142;3.732;2023-08-01T15:12:25;19.20;99.90
59923;DHT22;45778;51.142;3.732;2023-08-01T15:14:55;19.10;99.90
59923;DHT22;45778;51.142;3.732;2023-08-01T15:17:21;19.00;99.90
59923;DHT22;45778;51.142;3.732;2023-08-01T15:19:47;18.90;99.90
59923;DHT22;45778;51.142;3.732;2023-08-01T15:22:13;18.90;99.90
59923;DHT22;45778;51.142;3.732;2023-08-01T15:24:39;18.90;99.90
59923;DHT22;45778;51.142;3.732;2023-08-01T15:27:05;18.90;99.90